createdAt,value
2022-12-27T00:02:40.726Z,4.93
2022-12-27T00:07:43.772Z,4.87
2022-12-27T00:12:48.002Z,4.95
2022-12-27T00:17:50.939Z,5.15
2022-12-27T00:22:53.941Z,5.16
2022-12-27T00:27:58.434Z,5.16
2022-12-27T00:33:01.315Z,4.81
2022-12-27T00:38:04.942Z,4.95
2022-12-27T00:43:09.781Z,4.90
2022-12-27T00:48:13.446Z,4.94
2022-12-27T00:53:16.524Z,4.99
2022-12-27T00:58:20.782Z,4.93
2022-12-27T01:03:23.695Z,4.33
2022-12-27T01:08:26.590Z,4.49
2022-12-27T01:13:31.145Z,4.73
2022-12-27T01:18:34.790Z,4.80
2022-12-27T01:23:38.120Z,4.79
2022-12-27T01:28:42.378Z,4.83
2022-12-27T01:33:45.604Z,4.75
2022-12-27T01:38:49.186Z,4.70
2022-12-27T01:43:53.419Z,4.79
2022-12-27T01:48:56.904Z,4.78
2022-12-27T01:53:59.839Z,4.84
2022-12-27T01:59:09.366Z,4.65
2022-12-27T02:04:16.781Z,4.67
2022-12-27T02:09:26.632Z,4.57
2022-12-27T02:14:33.326Z,4.70
2022-12-27T02:19:46.469Z,4.70
2022-12-27T02:25:08.257Z,4.70
2022-12-27T02:30:13.904Z,4.68
2022-12-27T02:35:24.172Z,4.37
2022-12-27T02:40:46.329Z,4.31
2022-12-27T02:46:16.064Z,4.38
2022-12-27T02:51:55.645Z,4.17
2022-12-27T02:57:10.898Z,4.09
2022-12-27T03:02:44.757Z,3.95
2022-12-27T03:07:52.585Z,4.09
2022-12-27T03:13:25.837Z,3.88
2022-12-27T03:18:50.322Z,3.72
2022-12-27T03:24:14.474Z,3.72
2022-12-27T03:29:38.049Z,3.73
2022-12-27T03:34:48.465Z,3.67
2022-12-27T03:39:57.652Z,3.76
2022-12-27T03:45:00.611Z,3.67
2022-12-27T03:50:10.922Z,3.56
2022-12-27T03:55:14.354Z,3.42
2022-12-27T04:00:18.011Z,3.37
2022-12-27T04:05:22.449Z,3.47
2022-12-27T04:10:42.883Z,3.45
2022-12-27T04:16:03.254Z,3.31
2022-12-27T04:21:24.992Z,3.23
2022-12-27T04:26:45.259Z,3.30
2022-12-27T04:32:05.481Z,3.15
2022-12-27T04:37:11.668Z,2.99
2022-12-27T04:42:31.833Z,2.94
2022-12-27T04:47:52.006Z,2.94
2022-12-27T04:53:13.691Z,2.83
2022-12-27T04:58:17.646Z,2.58
2022-12-27T05:03:23.449Z,2.75
2022-12-27T05:08:44.971Z,2.73
2022-12-27T05:14:03.054Z,2.78
2022-12-27T05:19:07.715Z,2.90
2022-12-27T05:24:29.435Z,2.90
2022-12-27T05:29:35.994Z,2.88
2022-12-27T05:34:38.871Z,2.97
2022-12-27T05:39:43.177Z,2.97
2022-12-27T05:44:46.045Z,3.00
2022-12-27T05:49:48.950Z,2.94
2022-12-27T05:54:53.174Z,3.05
2022-12-27T05:59:56.082Z,3.18
2022-12-27T06:04:58.978Z,3.17
2022-12-27T06:10:03.431Z,3.12
2022-12-27T06:15:07.851Z,3.02
2022-12-27T06:20:11.292Z,3.01
2022-12-27T06:25:15.583Z,2.95
2022-12-27T06:30:18.689Z,2.88
2022-12-27T06:35:21.629Z,2.80
2022-12-27T06:40:25.913Z,2.66
2022-12-27T06:45:28.907Z,2.72
2022-12-27T06:50:32.177Z,2.55
2022-12-27T06:55:36.471Z,2.59
2022-12-27T07:00:39.417Z,2.48
2022-12-27T07:05:42.322Z,2.63
2022-12-27T07:10:46.721Z,2.67
2022-12-27T07:15:50.315Z,2.70
2022-12-27T07:20:53.285Z,2.74
2022-12-27T07:26:03.396Z,2.62
2022-12-27T07:31:09.157Z,2.78
2022-12-27T07:36:16.398Z,2.74
2022-12-27T07:41:22.297Z,2.69
2022-12-27T07:46:26.962Z,2.71
2022-12-27T07:51:29.965Z,2.72
2022-12-27T07:56:34.262Z,2.84
2022-12-27T08:01:57.143Z,2.94
2022-12-27T08:07:05.411Z,3.06
2022-12-27T08:12:10.521Z,3.07
2022-12-27T08:17:20.228Z,3.15
2022-12-27T08:22:24.520Z,3.18
2022-12-27T08:27:28.768Z,3.28
2022-12-27T08:32:31.713Z,3.29
2022-12-27T08:37:34.856Z,3.46
2022-12-27T08:42:39.083Z,3.58
2022-12-27T08:47:42.069Z,3.65
2022-12-27T08:52:44.934Z,3.90
2022-12-27T08:57:49.206Z,3.85
2022-12-27T09:02:52.138Z,3.87
2022-12-27T09:07:55.321Z,3.80
2022-12-27T09:12:59.540Z,3.88
2022-12-27T09:18:03.188Z,3.80
2022-12-27T09:23:06.146Z,3.87
2022-12-27T09:28:10.351Z,3.93
2022-12-27T09:33:13.243Z,4.09
2022-12-27T09:38:16.152Z,4.29
2022-12-27T09:43:27.497Z,4.14
2022-12-27T09:48:35.058Z,4.27
2022-12-27T09:53:46.144Z,4.32
2022-12-27T09:58:53.183Z,4.39
2022-12-27T10:03:56.215Z,4.32
2022-12-27T10:09:06.098Z,4.48
2022-12-27T10:14:29.324Z,4.63
2022-12-27T10:19:43.406Z,4.85
2022-12-27T10:24:51.570Z,5.05
2022-12-27T10:29:57.372Z,5.05
2022-12-27T10:35:03.567Z,4.87
2022-12-27T10:40:13.307Z,4.96
2022-12-27T10:45:32.322Z,5.03
2022-12-27T10:50:35.266Z,5.19
2022-12-27T10:55:39.443Z,5.14
2022-12-27T11:00:54.472Z,5.34
2022-12-27T11:06:02.115Z,5.23
2022-12-27T11:11:16.089Z,5.39
2022-12-27T11:16:28.854Z,5.44
2022-12-27T11:21:32.655Z,5.44
2022-12-27T11:26:42.868Z,5.47
2022-12-27T11:31:49.019Z,5.74
2022-12-27T11:36:56.118Z,5.73
2022-12-27T11:42:02.202Z,5.62
2022-12-27T11:47:13.609Z,5.74
2022-12-27T11:52:49.194Z,5.82
2022-12-27T11:58:18.768Z,5.79
2022-12-27T12:03:49.354Z,5.92
2022-12-27T12:09:22.050Z,5.91
2022-12-27T12:14:54.209Z,5.87
2022-12-27T12:20:23.828Z,5.78
2022-12-27T12:25:53.786Z,5.86
2022-12-27T12:31:12.343Z,5.96
2022-12-27T12:36:40.848Z,5.99
2022-12-27T12:42:16.341Z,5.97
2022-12-27T12:47:34.177Z,6.02
2022-12-27T12:53:01.983Z,5.89
2022-12-27T12:58:18.645Z,5.91
2022-12-27T13:03:59.332Z,5.92
2022-12-27T13:09:11.950Z,6.03
2022-12-27T13:14:29.347Z,5.99
2022-12-27T13:19:58.927Z,5.89
2022-12-27T13:25:26.066Z,5.84
2022-12-27T13:30:35.193Z,5.88
2022-12-27T13:36:06.963Z,5.85
2022-12-27T13:41:30.733Z,5.93
2022-12-27T13:46:50.507Z,5.82
2022-12-27T13:51:57.303Z,5.89
2022-12-27T13:57:19.146Z,5.75
2022-12-27T14:02:52.080Z,5.77
2022-12-27T14:08:06.208Z,5.75
2022-12-27T14:13:11.687Z,5.68
2022-12-27T14:18:30.797Z,5.70
2022-12-27T14:23:57.433Z,5.66
2022-12-27T14:29:44.160Z,5.62
2022-12-27T14:35:25.455Z,5.53
2022-12-27T14:40:53.217Z,5.46
2022-12-27T14:46:32.792Z,5.47
2022-12-27T14:52:01.636Z,5.43
2022-12-27T14:57:18.107Z,5.43
2022-12-27T15:02:37.155Z,5.44
2022-12-27T15:08:04.913Z,5.27
2022-12-27T15:13:16.619Z,5.30
2022-12-27T15:18:39.808Z,5.10
2022-12-27T15:23:52.714Z,4.94
2022-12-27T15:29:27.181Z,4.96
2022-12-27T15:34:44.974Z,4.82
2022-12-27T15:39:51.087Z,4.84
2022-12-27T15:45:04.355Z,4.80
2022-12-27T15:50:45.622Z,4.82
2022-12-27T15:56:12.268Z,4.73
2022-12-27T16:01:28.813Z,4.68
2022-12-27T16:06:55.658Z,4.68
2022-12-27T16:12:06.897Z,4.43
2022-12-27T16:17:31.434Z,4.53
2022-12-27T16:22:39.321Z,4.41
2022-12-27T16:27:44.443Z,4.23
2022-12-27T16:32:50.064Z,4.22
2022-12-27T16:37:57.203Z,4.11
2022-12-27T16:43:42.277Z,4.26
2022-12-27T16:49:04.451Z,4.01
2022-12-27T16:54:23.305Z,4.03
2022-12-27T16:59:57.673Z,3.79
2022-12-27T17:05:01.520Z,3.75
2022-12-27T17:10:42.926Z,3.51
2022-12-27T17:15:55.057Z,3.50
2022-12-27T17:21:04.772Z,3.49
2022-12-27T17:26:47.458Z,3.50
2022-12-27T17:31:58.409Z,3.67
2022-12-27T17:37:12.603Z,3.32
2022-12-27T17:42:42.036Z,3.33
2022-12-27T17:48:03.725Z,3.33
2022-12-27T17:53:36.700Z,3.45
2022-12-27T17:58:39.759Z,3.43
2022-12-27T18:03:48.388Z,3.41
2022-12-27T18:08:52.086Z,3.52
2022-12-27T18:13:58.983Z,3.40
2022-12-27T18:19:03.597Z,3.50
2022-12-27T18:24:24.703Z,3.32
2022-12-27T18:29:27.665Z,3.33
2022-12-27T18:34:38.158Z,3.38
2022-12-27T18:39:43.338Z,3.55
2022-12-27T18:44:49.311Z,3.52
2022-12-27T18:49:56.644Z,3.50
2022-12-27T18:55:14.844Z,3.55
2022-12-27T19:00:22.748Z,3.63
2022-12-27T19:05:31.222Z,3.83
2022-12-27T19:10:34.303Z,3.73
2022-12-27T19:15:41.453Z,3.64
2022-12-27T19:20:53.890Z,3.68
2022-12-27T19:26:06.752Z,3.66
2022-12-27T19:31:19.851Z,3.58
2022-12-27T19:36:27.795Z,3.65
2022-12-27T19:41:31.847Z,3.68
2022-12-27T19:46:34.830Z,3.72
2022-12-27T19:51:39.576Z,3.79
2022-12-27T19:56:42.762Z,3.76
2022-12-27T20:01:46.660Z,3.64
2022-12-27T20:06:51.092Z,3.76
2022-12-27T20:11:54.366Z,3.79
2022-12-27T20:16:57.282Z,3.73
2022-12-27T20:22:01.996Z,3.57
2022-12-27T20:27:05.111Z,3.58
2022-12-27T20:32:08.138Z,3.48
2022-12-27T20:37:12.452Z,3.60
2022-12-27T20:42:15.449Z,3.69
2022-12-27T20:47:18.456Z,3.60
2022-12-27T20:52:28.837Z,3.48
2022-12-27T20:57:34.766Z,3.46
2022-12-27T21:02:39.774Z,3.41
2022-12-27T21:07:44.177Z,3.31
2022-12-27T21:12:47.042Z,3.36
2022-12-27T21:17:49.927Z,3.30
2022-12-27T21:22:54.238Z,3.35
2022-12-27T21:27:57.154Z,3.36
2022-12-27T21:33:00.038Z,3.33
2022-12-27T21:38:04.454Z,3.48
2022-12-27T21:43:07.380Z,3.26
2022-12-27T21:48:10.290Z,3.35
2022-12-27T21:53:15.984Z,3.32
2022-12-27T21:58:18.923Z,3.39
2022-12-27T22:03:22.007Z,3.46
2022-12-27T22:08:26.407Z,3.50
2022-12-27T22:13:29.961Z,3.46
2022-12-27T22:18:34.667Z,3.58
2022-12-27T22:23:40.620Z,3.49
2022-12-27T22:28:44.299Z,3.45
2022-12-27T22:33:48.039Z,3.47
2022-12-27T22:38:53.689Z,3.54
2022-12-27T22:43:58.383Z,3.67
2022-12-27T22:49:02.407Z,3.70
2022-12-27T22:54:08.626Z,3.52
2022-12-27T22:59:12.910Z,3.41
2022-12-27T23:04:16.006Z,3.47
2022-12-27T23:09:20.298Z,3.53
2022-12-27T23:14:23.440Z,3.59
2022-12-27T23:19:26.286Z,3.52
2022-12-27T23:24:30.633Z,3.43
2022-12-27T23:29:33.613Z,3.62
2022-12-27T23:34:36.491Z,3.60
2022-12-27T23:39:41.129Z,3.62
2022-12-27T23:44:44.053Z,3.64
2022-12-27T23:49:46.930Z,3.57
2022-12-27T23:54:51.190Z,3.64
2022-12-27T23:59:55.385Z,3.69
